Time;durP1;ratioP1;P1;durP2;ratioP2;P2;SDS_P1;SDS_P2;PMS_P1;PMS_P2;Temp;Humidity;BMP_temperature;BMP_pressure;BME280_temperature;BME280_humidity;BME280_pressure;Samples;Min_cycle;Max_cycle;Signal;HPM_P1;HPM_P2
2022/06/04 00:00:54;;;;;;;8.65;6.40;;;20.00;99.90;;;;;;7389961;19;20554;-75
2022/06/04 00:03:20;;;;;;;6.88;5.88;;;19.90;99.90;;;;;;7390170;19;20162;-83
2022/06/04 00:05:49;;;;;;;6.82;5.90;;;19.90;99.90;;;;;;7387466;19;21211;-76
2022/06/04 00:08:15;;;;;;;10.82;6.40;;;19.90;99.90;;;;;;7388864;19;20194;-75
2022/06/04 00:16:22;;;;;;;7.47;6.10;;;19.80;99.90;;;;;;7385686;19;20142;-83
2022/06/04 00:18:48;;;;;;;7.97;6.50;;;19.80;99.90;;;;;;7389621;19;20574;-83
2022/06/04 00:21:14;;;;;;;7.63;6.75;;;19.80;99.90;;;;;;7388337;19;20134;-81
2022/06/04 00:23:40;;;;;;;7.03;6.30;;;19.80;99.90;;;;;;7388330;19;20119;-74
2022/06/04 00:26:09;;;;;;;6.78;6.07;;;19.80;99.90;;;;;;7384272;19;20567;-74
2022/06/04 00:28:36;;;;;;;7.88;6.45;;;19.70;99.90;;;;;;7387803;19;20131;-74
2022/06/04 00:31:02;;;;;;;7.95;6.78;;;19.60;99.90;;;;;;7387136;19;20164;-75
2022/06/04 00:33:28;;;;;;;9.82;7.05;;;19.60;99.90;;;;;;7392769;19;20632;-75
2022/06/04 00:35:57;;;;;;;7.53;6.75;;;19.70;99.90;;;;;;7396770;19;20137;-75
2022/06/04 00:38:26;;;;;;;7.53;6.03;;;19.70;99.90;;;;;;7396392;19;20219;-75
2022/06/04 00:41:28;;;;;;;7.50;5.75;;;19.70;99.90;;;;;;7394458;19;20138;-83
2022/06/04 00:44:28;;;;;;;6.47;5.88;;;19.60;99.90;;;;;;7391257;19;20510;-75
2022/06/04 00:47:12;;;;;;;8.25;6.22;;;19.60;99.90;;;;;;7393775;19;20134;-80
2022/06/04 00:49:38;;;;;;;6.28;5.53;;;19.70;99.90;;;;;;7393398;19;20159;-75
2022/06/04 00:52:09;;;;;;;8.27;6.53;;;19.70;99.90;;;;;;7396083;19;20142;-81
2022/06/04 00:54:35;;;;;;;6.53;5.93;;;19.70;99.90;;;;;;7395989;19;20139;-75
2022/06/04 00:57:07;;;;;;;8.05;6.20;;;19.80;99.90;;;;;;7393011;19;20143;-82
2022/06/04 00:59:40;;;;;;;6.95;6.25;;;19.70;99.90;;;;;;7392151;19;20681;-75
2022/06/04 01:02:27;;;;;;;7.45;6.75;;;19.60;99.90;;;;;;7393734;19;20225;-75
2022/06/04 01:05:10;;;;;;;7.25;6.55;;;19.10;99.90;;;;;;7386464;19;20166;-82
2022/06/04 01:07:53;;;;;;;7.50;6.45;;;19.10;99.90;;;;;;7396020;19;20619;-81
2022/06/04 01:10:58;;;;;;;7.60;6.82;;;19.00;99.90;;;;;;7389401;19;20138;-82
2022/06/04 01:14:01;;;;;;;8.13;6.70;;;19.10;99.90;;;;;;7392497;19;20743;-75
2022/06/04 01:16:39;;;;;;;8.65;6.78;;;18.80;99.90;;;;;;7393900;19;20149;-75
2022/06/04 01:19:37;;;;;;;9.30;8.20;;;18.80;99.90;;;;;;7395743;19;20135;-75
2022/06/04 01:22:09;;;;;;;10.10;8.13;;;19.20;99.90;;;;;;7391355;19;20214;-82
2022/06/04 01:24:49;;;;;;;9.55;8.45;;;19.40;99.90;;;;;;7391377;19;20138;-84
2022/06/04 01:27:34;;;;;;;10.68;8.65;;;19.40;99.90;;;;;;7391427;19;20126;-75
2022/06/04 01:30:09;;;;;;;8.70;7.78;;;19.40;99.90;;;;;;7391911;19;20586;-81
2022/06/04 01:32:40;;;;;;;9.07;8.18;;;19.40;99.90;;;;;;7392463;19;20158;-75
2022/06/04 01:35:19;;;;;;;8.32;7.40;;;19.40;99.90;;;;;;7395932;19;20135;-75
2022/06/04 01:37:53;;;;;;;8.88;7.60;;;19.30;99.90;;;;;;7392264;19;20137;-75
2022/06/04 01:43:14;;;;;;;8.90;7.45;;;19.30;99.90;;;;;;7392694;19;20161;-76
2022/06/04 01:45:43;;;;;;;9.88;7.15;;;19.30;99.90;;;;;;7389534;19;20173;-79
2022/06/04 01:48:10;;;;;;;8.55;7.47;;;19.20;99.90;;;;;;7392561;19;20131;-76
2022/06/04 01:50:43;;;;;;;9.63;7.82;;;19.00;99.90;;;;;;7392498;19;20162;-78
2022/06/04 01:53:11;;;;;;;8.18;7.38;;;19.00;99.90;;;;;;7391578;19;20135;-82
2022/06/04 01:55:49;;;;;;;8.32;6.88;;;18.90;99.90;;;;;;7393650;19;20538;-76
2022/06/04 01:58:37;;;;;;;11.00;6.53;;;19.10;99.90;;;;;;7392457;19;20131;-81
2022/06/04 02:01:08;;;;;;;7.68;6.82;;;19.10;99.90;;;;;;7392318;19;20231;-82
2022/06/04 02:03:52;;;;;;;7.63;6.82;;;19.10;99.90;;;;;;7390259;19;20788;-83
2022/06/04 02:06:22;;;;;;;7.60;6.80;;;19.10;99.90;;;;;;7385989;19;20241;-83
2022/06/04 02:09:02;;;;;;;7.93;7.13;;;19.30;99.90;;;;;;7390575;19;20162;-76
2022/06/04 02:11:30;;;;;;;8.18;6.90;;;19.30;99.90;;;;;;7389937;19;20863;-75
2022/06/04 02:14:01;;;;;;;6.68;6.03;;;19.30;99.90;;;;;;7393492;19;20135;-83
2022/06/04 02:16:39;;;;;;;7.03;5.88;;;19.10;99.90;;;;;;7391229;19;20143;-82
2022/06/04 02:19:05;;;;;;;7.07;6.07;;;19.10;99.90;;;;;;7393140;19;20131;-82
2022/06/04 02:21:32;;;;;;;7.70;6.78;;;19.20;99.90;;;;;;7392663;19;20506;-81
2022/06/04 02:23:59;;;;;;;7.55;6.43;;;19.20;99.90;;;;;;7392759;19;20138;-82
2022/06/04 02:26:26;;;;;;;7.70;6.90;;;19.30;99.90;;;;;;7388110;19;20135;-82
2022/06/04 02:28:53;;;;;;;7.90;6.28;;;19.40;99.90;;;;;;7391161;19;20138;-83
2022/06/04 02:31:51;;;;;;;7.05;6.30;;;19.40;99.90;;;;;;7394219;19;20156;-75
2022/06/04 02:34:40;;;;;;;7.20;6.45;;;19.00;99.90;;;;;;7389132;19;20135;-81
2022/06/04 02:37:20;;;;;;;6.30;5.70;;;19.10;99.90;;;;;;7393027;19;20147;-81
2022/06/04 02:39:54;;;;;;;7.03;6.32;;;19.00;99.90;;;;;;7391957;19;20138;-83
2022/06/04 02:42:46;;;;;;;7.03;6.35;;;19.00;99.90;;;;;;7389968;19;20189;-75
2022/06/04 02:45:29;;;;;;;6.55;5.85;;;19.00;99.90;;;;;;7388052;19;20594;-82
2022/06/04 02:48:06;;;;;;;6.65;5.95;;;19.00;99.90;;;;;;7391122;19;20146;-80
2022/06/04 02:50:37;;;;;;;6.40;5.80;;;18.90;99.90;;;;;;7390135;19;20141;-83
2022/06/04 02:53:05;;;;;;;9.00;6.15;;;19.00;99.90;;;;;;7389585;19;20522;-82
2022/06/04 02:55:53;;;;;;;6.55;5.93;;;19.10;99.90;;;;;;7390931;19;20126;-81
2022/06/04 02:58:21;;;;;;;6.82;6.07;;;19.00;99.90;;;;;;7385930;19;20131;-81
2022/06/04 03:00:51;;;;;;;7.13;6.05;;;19.00;99.90;;;;;;7392459;19;20131;-82
2022/06/04 03:03:17;;;;;;;6.40;5.63;;;19.00;99.90;;;;;;7386825;19;20153;-76
2022/06/04 03:05:52;;;;;;;6.88;6.07;;;18.80;99.90;;;;;;7387906;19;20135;-75
2022/06/04 03:08:18;;;;;;;6.75;6.05;;;18.80;99.90;;;;;;7392063;19;20141;-75
2022/06/04 03:10:43;;;;;;;6.22;5.18;;;18.80;99.90;;;;;;7390442;19;20127;-75
2022/06/04 03:13:09;;;;;;;6.05;5.45;;;18.70;99.90;;;;;;7392016;19;20206;-81
2022/06/04 03:15:35;;;;;;;6.32;5.22;;;18.60;99.90;;;;;;7388357;19;20135;-82
2022/06/04 03:18:01;;;;;;;5.88;5.28;;;18.30;99.90;;;;;;7390356;19;20182;-75
2022/06/04 03:20:27;;;;;;;5.90;5.30;;;18.00;99.90;;;;;;7392082;19;20150;-82
2022/06/04 03:22:53;;;;;;;6.53;5.22;;;18.10;99.90;;;;;;7390222;19;20288;-76
2022/06/04 03:25:20;;;;;;;7.05;5.65;;;18.20;99.90;;;;;;7391046;19;20190;-83
2022/06/04 03:27:46;;;;;;;5.90;5.07;;;18.30;99.90;;;;;;7394723;19;20143;-75
2022/06/04 03:30:12;;;;;;;6.15;5.50;;;18.50;99.90;;;;;;7392761;19;20142;-75
2022/06/04 03:32:38;;;;;;;7.18;5.60;;;18.40;99.90;;;;;;7389194;19;20160;-82
2022/06/04 03:35:05;;;;;;;6.30;5.70;;;18.50;99.90;;;;;;7388931;19;20594;-75
2022/06/04 03:37:32;;;;;;;7.20;5.88;;;18.80;99.90;;;;;;7389595;19;20206;-81
2022/06/04 03:39:58;;;;;;;8.73;5.38;;;19.00;99.90;;;;;;7389769;19;20198;-82
2022/06/04 03:42:23;;;;;;;6.30;5.70;;;18.90;99.90;;;;;;7387527;19;20151;-75
2022/06/04 03:44:49;;;;;;;7.57;6.38;;;18.90;99.90;;;;;;7389036;19;20236;-74
2022/06/04 03:47:17;;;;;;;6.45;5.65;;;18.90;99.90;;;;;;7389419;19;20165;-75
2022/06/04 03:49:46;;;;;;;6.57;5.80;;;18.60;99.90;;;;;;7388766;19;20142;-82
2022/06/04 03:52:13;;;;;;;6.85;5.32;;;18.60;99.90;;;;;;7389167;19;20153;-81
2022/06/04 03:54:56;;;;;;;7.30;5.70;;;18.40;99.90;;;;;;7388016;19;20632;-75
2022/06/04 04:00:32;;;;;;;6.22;5.47;;;18.80;99.90;;;;;;7391561;19;20591;-76
2022/06/04 04:03:10;;;;;;;7.07;5.53;;;18.60;99.90;;;;;;7391343;19;20486;-82
2022/06/04 04:05:44;;;;;;;6.38;5.70;;;18.70;99.90;;;;;;7387915;19;20126;-73
2022/06/04 04:08:11;;;;;;;5.72;5.05;;;18.90;99.90;;;;;;7390191;19;20147;-82
2022/06/04 04:10:39;;;;;;;5.68;5.07;;;18.70;99.90;;;;;;7395653;19;20130;-82
2022/06/04 04:13:05;;;;;;;5.90;5.30;;;18.60;99.90;;;;;;7395629;19;20163;-74
2022/06/04 04:15:32;;;;;;;6.88;4.97;;;18.40;99.90;;;;;;7397833;19;20229;-76
2022/06/04 04:17:58;;;;;;;7.55;5.68;;;18.50;99.90;;;;;;7394423;19;20150;-75
2022/06/04 04:20:29;;;;;;;5.60;5.10;;;18.60;99.90;;;;;;7399697;19;20166;-75
2022/06/04 04:22:57;;;;;;;6.07;5.47;;;18.80;99.90;;;;;;7390700;19;20142;-80
2022/06/04 04:25:25;;;;;;;6.43;5.53;;;19.00;99.90;;;;;;7395878;19;20138;-83
2022/06/04 04:27:52;;;;;;;6.68;5.38;;;19.10;99.90;;;;;;7398852;19;20162;-83
2022/06/04 04:30:21;;;;;;;6.50;5.55;;;19.20;99.90;;;;;;7393755;19;20135;-74
2022/06/04 04:32:48;;;;;;;5.88;5.28;;;19.20;99.90;;;;;;7400859;19;20210;-73
2022/06/04 04:35:17;;;;;;;6.40;5.43;;;19.30;99.90;;;;;;7392873;19;20146;-74
2022/06/04 04:37:43;;;;;;;6.18;5.57;;;19.40;99.90;;;;;;7396714;19;20134;-74
2022/06/04 04:40:11;;;;;;;6.85;5.57;;;19.10;99.90;;;;;;7393995;19;20221;-81
2022/06/04 04:42:37;;;;;;;6.68;5.93;;;19.10;99.90;;;;;;7394318;19;20145;-76
2022/06/04 04:45:07;;;;;;;7.03;5.65;;;19.10;99.90;;;;;;7392463;19;20145;-81
2022/06/04 04:47:34;;;;;;;7.78;6.43;;;19.20;99.90;;;;;;7396345;19;20142;-75
2022/06/04 04:50:00;;;;;;;7.30;6.20;;;19.40;99.90;;;;;;7396407;19;20134;-74
2022/06/04 04:52:27;;;;;;;8.32;6.03;;;19.40;99.90;;;;;;7395646;19;20143;-74
2022/06/04 04:54:53;;;;;;;7.88;6.15;;;19.40;99.90;;;;;;7395220;19;20142;-76
2022/06/04 04:57:19;;;;;;;6.95;5.95;;;19.40;99.90;;;;;;7392747;19;20130;-82
2022/06/04 04:59:45;;;;;;;6.97;6.18;;;19.50;99.90;;;;;;7393185;19;20139;-75
2022/06/04 05:02:11;;;;;;;6.30;5.70;;;19.60;99.90;;;;;;7395266;19;20244;-82
2022/06/04 05:04:37;;;;;;;6.65;6.00;;;19.60;99.90;;;;;;7393270;19;20691;-74
2022/06/04 05:07:03;;;;;;;8.27;5.45;;;19.60;99.90;;;;;;7398361;19;20146;-75
2022/06/04 05:09:29;;;;;;;6.55;5.70;;;19.60;99.90;;;;;;7395151;19;20146;-81
2022/06/04 05:11:54;;;;;;;7.63;5.55;;;19.60;99.90;;;;;;7395920;19;20131;-75
2022/06/04 05:14:20;;;;;;;7.18;5.78;;;19.60;99.90;;;;;;7394298;19;20148;-83
2022/06/04 05:16:46;;;;;;;6.93;5.68;;;19.30;99.90;;;;;;7390670;19;20166;-75
2022/06/04 05:19:13;;;;;;;6.53;5.80;;;19.40;99.90;;;;;;7392581;19;20202;-80
2022/06/04 05:21:43;;;;;;;6.00;5.40;;;19.60;99.90;;;;;;7395732;19;20159;-80
2022/06/04 05:24:19;;;;;;;5.85;5.25;;;19.80;99.90;;;;;;7395484;19;20157;-80
2022/06/04 05:26:46;;;;;;;7.45;5.85;;;19.80;99.90;;;;;;7392662;19;20134;-80
2022/06/04 05:29:12;;;;;;;7.32;6.03;;;19.80;99.90;;;;;;7392678;19;20138;-75
2022/06/04 05:31:39;;;;;;;5.65;5.15;;;19.90;99.90;;;;;;7393840;19;20165;-80
2022/06/04 05:34:06;;;;;;;6.00;5.40;;;19.90;99.90;;;;;;7392686;19;20143;-77
2022/06/04 05:36:32;;;;;;;9.55;5.72;;;19.90;99.90;;;;;;7390690;19;20721;-76
2022/06/04 05:38:58;;;;;;;5.72;5.10;;;19.80;99.90;;;;;;7391897;19;20540;-74
2022/06/04 05:41:25;;;;;;;7.70;5.35;;;19.80;99.90;;;;;;7392436;19;20127;-75
2022/06/04 05:43:53;;;;;;;6.45;5.22;;;19.80;99.90;;;;;;7393200;19;20515;-75
2022/06/04 05:46:20;;;;;;;5.47;4.55;;;19.70;99.90;;;;;;7390391;19;20164;-81
2022/06/04 05:48:46;;;;;;;5.47;4.70;;;19.80;99.90;;;;;;7393204;19;20138;-76
2022/06/04 05:51:15;;;;;;;5.93;5.05;;;19.80;99.90;;;;;;7393308;19;20254;-75
2022/06/04 05:53:41;;;;;;;5.30;4.80;;;19.90;99.90;;;;;;7392323;19;20130;-80
2022/06/04 05:56:18;;;;;;;5.75;4.95;;;19.90;99.90;;;;;;7391337;19;20214;-75
2022/06/04 05:58:46;;;;;;;5.22;4.60;;;19.90;99.90;;;;;;7395275;19;20498;-75
2022/06/04 06:01:17;;;;;;;6.50;5.15;;;20.00;99.90;;;;;;7393288;19;20499;-79
2022/06/04 06:03:43;;;;;;;5.95;5.22;;;19.90;99.90;;;;;;7390174;19;20603;-74
2022/06/04 06:06:18;;;;;;;6.40;4.63;;;19.70;99.90;;;;;;7391403;19;20164;-79
2022/06/04 06:08:44;;;;;;;7.50;5.60;;;19.80;99.90;;;;;;7389568;19;20134;-81
2022/06/04 06:11:13;;;;;;;5.75;4.88;;;19.90;99.90;;;;;;7392138;19;20210;-79
2022/06/04 06:13:41;;;;;;;6.35;4.65;;;20.00;99.90;;;;;;7393910;19;20206;-79
2022/06/04 06:16:13;;;;;;;5.15;4.65;;;19.90;99.90;;;;;;7393710;19;20592;-81
2022/06/04 06:18:39;;;;;;;4.75;3.63;;;20.00;99.90;;;;;;7385350;19;20202;-76
2022/06/04 06:21:11;;;;;;;7.15;3.63;;;20.00;99.90;;;;;;7391934;19;20140;-82
2022/06/04 06:23:37;;;;;;;9.07;5.40;;;20.00;99.90;;;;;;7392002;19;20147;-74
2022/06/04 06:26:08;;;;;;;9.00;6.32;;;19.80;99.90;;;;;;7390108;19;20226;-76
2022/06/04 06:28:36;;;;;;;5.97;4.13;;;19.80;99.90;;;;;;7392484;19;20138;-75
2022/06/04 06:31:02;;;;;;;5.32;3.70;;;19.70;99.90;;;;;;7389282;19;20134;-78
2022/06/04 06:33:29;;;;;;;7.13;4.10;;;19.30;99.90;;;;;;7389305;19;20253;-77
2022/06/04 06:36:01;;;;;;;6.55;4.18;;;19.40;99.90;;;;;;7390085;19;20206;-76
2022/06/04 06:38:27;;;;;;;6.32;4.32;;;19.50;99.90;;;;;;7392451;19;20139;-73
2022/06/04 06:40:55;;;;;;;4.30;3.90;;;19.40;99.90;;;;;;7389348;19;20134;-72
2022/06/04 06:43:22;;;;;;;5.75;4.05;;;19.40;99.90;;;;;;7390326;19;20135;-72
2022/06/04 06:45:48;;;;;;;5.22;4.25;;;19.50;99.90;;;;;;7387518;19;20138;-76
2022/06/04 06:48:14;;;;;;;5.82;4.15;;;19.50;99.90;;;;;;7386079;19;20127;-77
2022/06/04 06:50:40;;;;;;;7.38;4.40;;;19.60;99.90;;;;;;7391446;19;20764;-74
2022/06/04 06:53:06;;;;;;;9.60;4.03;;;19.70;99.90;;;;;;7391013;19;20583;-76
2022/06/04 06:55:32;;;;;;;5.65;3.97;;;19.80;99.90;;;;;;7388997;19;20134;-79
2022/06/04 06:57:58;;;;;;;10.35;4.97;;;19.80;99.90;;;;;;7390183;19;20601;-78
2022/06/04 07:00:24;;;;;;;5.80;4.53;;;19.90;99.90;;;;;;7386292;19;20134;-78
2022/06/04 07:02:50;;;;;;;5.03;4.53;;;20.10;99.90;;;;;;7391337;19;20126;-79
2022/06/04 07:05:16;;;;;;;5.15;4.50;;;20.10;99.90;;;;;;7384199;19;20674;-78
2022/06/04 07:07:42;;;;;;;5.95;4.80;;;20.00;99.90;;;;;;7388581;19;20598;-73
2022/06/04 07:10:09;;;;;;;6.72;5.00;;;20.00;99.90;;;;;;7391649;19;20138;-74
2022/06/04 07:12:35;;;;;;;7.78;5.10;;;20.00;99.90;;;;;;7389265;19;20134;-78
2022/06/04 07:15:02;;;;;;;10.80;5.15;;;20.00;99.90;;;;;;7387365;19;20658;-73
2022/06/04 07:17:28;;;;;;;6.72;5.32;;;20.10;99.90;;;;;;7387100;19;20210;-78
2022/06/04 07:19:54;;;;;;;5.22;4.55;;;20.10;99.90;;;;;;7387226;19;20139;-77
2022/06/04 07:22:20;;;;;;;5.20;4.60;;;20.10;99.90;;;;;;7387238;19;20145;-78
2022/06/04 07:24:46;;;;;;;9.05;5.60;;;20.10;99.90;;;;;;7388635;19;20130;-73
2022/06/04 07:27:12;;;;;;;7.07;5.40;;;20.20;99.90;;;;;;7387920;19;20127;-73
2022/06/04 07:29:37;;;;;;;6.63;4.72;;;20.30;99.90;;;;;;7388076;19;20127;-73
2022/06/04 07:32:04;;;;;;;9.63;6.18;;;20.60;99.90;;;;;;7388788;19;22107;-81
2022/06/04 07:34:31;;;;;;;5.75;5.15;;;21.00;99.90;;;;;;7390696;19;20133;-86
2022/06/04 07:36:57;;;;;;;7.07;5.10;;;21.40;99.90;;;;;;7371566;19;20502;-80
2022/06/04 07:39:23;;;;;;;6.90;5.28;;;21.60;99.90;;;;;;7391813;19;20138;-79
2022/06/04 07:41:53;;;;;;;6.78;5.10;;;21.70;99.90;;;;;;7390893;19;20140;-82
2022/06/04 07:44:21;;;;;;;7.00;4.63;;;21.40;99.90;;;;;;7394798;19;20582;-83
2022/06/04 07:46:48;;;;;;;6.38;5.00;;;21.30;99.90;;;;;;7389956;19;20586;-79
2022/06/04 07:49:14;;;;;;;6.93;5.22;;;21.30;99.90;;;;;;7391053;19;20127;-77
2022/06/04 07:51:42;;;;;;;7.10;5.40;;;21.10;99.90;;;;;;7393809;19;20159;-82
2022/06/04 07:54:09;;;;;;;5.50;5.00;;;21.20;99.90;;;;;;7392524;19;20143;-75
2022/06/04 07:56:36;;;;;;;6.55;5.85;;;21.20;99.90;;;;;;7391511;19;20552;-83
2022/06/04 07:59:07;;;;;;;6.85;4.90;;;21.10;99.90;;;;;;7391177;19;20156;-84
2022/06/04 08:01:33;;;;;;;6.82;6.20;;;21.00;99.90;;;;;;7394535;19;20143;-79
2022/06/04 08:04:03;;;;;;;7.97;6.53;;;20.90;99.90;;;;;;7388649;19;20150;-84
2022/06/04 08:06:31;;;;;;;6.90;5.63;;;20.90;99.90;;;;;;7393230;19;20155;-81
2022/06/04 08:09:01;;;;;;;8.95;6.60;;;20.90;99.90;;;;;;7390033;19;20142;-81
2022/06/04 08:11:36;;;;;;;8.75;6.85;;;21.00;99.90;;;;;;7390449;19;20594;-80
2022/06/04 08:14:21;;;;;;;8.00;6.78;;;21.10;99.90;;;;;;7385377;19;20130;-78
2022/06/04 08:16:53;;;;;;;8.02;6.65;;;21.00;99.90;;;;;;7385697;19;20150;-80
2022/06/04 08:19:19;;;;;;;7.82;6.85;;;21.30;99.90;;;;;;7386802;19;20147;-76
2022/06/04 08:21:45;;;;;;;8.88;7.25;;;21.30;99.90;;;;;;7385140;19;20153;-78
2022/06/04 08:24:13;;;;;;;7.30;6.60;;;21.60;99.90;;;;;;7386471;19;20134;-76
2022/06/04 08:26:53;;;;;;;7.72;6.88;;;21.60;99.90;;;;;;7383362;19;20146;-77
2022/06/04 08:29:20;;;;;;;8.05;6.68;;;21.40;99.90;;;;;;7385082;19;20586;-79
2022/06/04 08:31:46;;;;;;;7.65;6.85;;;21.70;99.90;;;;;;7387235;19;20135;-79
2022/06/04 08:34:13;;;;;;;8.07;7.07;;;21.80;99.90;;;;;;7387482;19;20590;-81
2022/06/04 08:36:41;;;;;;;11.95;9.75;;;22.10;99.90;;;;;;7387805;19;20135;-77
2022/06/04 08:39:07;;;;;;;8.30;6.35;;;22.40;99.90;;;;;;7385665;19;20672;-82
2022/06/04 08:41:57;;;;;;;6.57;5.60;;;22.60;99.90;;;;;;7384246;19;20613;-79
2022/06/04 08:44:35;;;;;;;9.15;6.20;;;22.60;99.90;;;;;;7388842;19;20143;-78
2022/06/04 08:47:07;;;;;;;6.38;5.75;;;22.80;99.90;;;;;;7387113;19;20269;-77
2022/06/04 08:49:43;;;;;;;7.78;5.95;;;23.30;99.90;;;;;;7382053;19;20194;-85
2022/06/04 08:52:17;;;;;;;6.18;5.57;;;23.70;99.90;;;;;;7382587;19;20454;-86
2022/06/04 08:57:44;;;;;;;7.90;6.93;;;24.00;99.90;;;;;;7392859;19;20143;-86
2022/06/04 09:00:16;;;;;;;7.25;6.55;;;24.10;99.90;;;;;;7393568;19;20205;-84
2022/06/04 09:02:52;;;;;;;7.35;6.07;;;24.10;99.90;;;;;;7394549;19;20145;-82
2022/06/04 09:05:39;;;;;;;7.82;6.82;;;23.60;99.90;;;;;;7390810;19;20134;-82
2022/06/04 09:08:29;;;;;;;9.13;6.85;;;23.40;99.90;;;;;;7387820;19;20130;-86
2022/06/04 09:10:59;;;;;;;8.98;7.10;;;23.40;99.90;;;;;;7394159;19;20146;-76
2022/06/04 09:13:42;;;;;;;7.55;6.72;;;23.20;99.90;;;;;;7394568;19;20324;-77
2022/06/04 09:16:23;;;;;;;7.00;6.30;;;23.30;99.90;;;;;;7397295;19;20168;-85
2022/06/04 09:18:55;;;;;;;7.63;6.78;;;23.60;99.90;;;;;;7393514;19;20131;-77
2022/06/04 09:21:35;;;;;;;8.65;7.32;;;23.60;99.90;;;;;;7374450;19;20134;-77
2022/06/04 09:24:01;;;;;;;6.55;5.90;;;23.70;99.90;;;;;;7383370;19;20133;-83
2022/06/04 09:26:40;;;;;;;6.78;5.95;;;23.60;99.90;;;;;;7390965;19;20138;-85
2022/06/04 09:29:22;;;;;;;6.35;5.68;;;23.90;99.90;;;;;;7390618;19;20141;-81
2022/06/04 09:32:09;;;;;;;6.25;5.63;;;23.90;99.90;;;;;;7387551;19;20130;-77
2022/06/04 09:34:40;;;;;;;6.80;5.75;;;24.00;99.90;;;;;;7381978;19;20139;-75
2022/06/04 09:37:09;;;;;;;8.15;6.00;;;24.10;99.90;;;;;;7384713;19;20793;-79
2022/06/04 09:39:37;;;;;;;8.00;5.55;;;24.10;99.90;;;;;;7388696;19;20202;-75
2022/06/04 09:42:22;;;;;;;6.07;5.47;;;24.00;99.90;;;;;;7385943;19;20130;-74
2022/06/04 09:44:57;;;;;;;5.72;5.13;;;23.90;99.90;;;;;;7384102;19;20135;-78
2022/06/04 09:47:33;;;;;;;7.13;5.75;;;23.80;99.90;;;;;;7386722;19;20153;-73
2022/06/04 09:50:03;;;;;;;6.97;5.95;;;23.90;99.90;;;;;;7386222;19;20138;-79
2022/06/04 09:52:43;;;;;;;6.65;5.85;;;23.80;99.90;;;;;;7386444;19;20153;-74
2022/06/04 09:55:22;;;;;;;6.40;5.40;;;23.70;99.90;;;;;;7386562;19;21253;-78
2022/06/04 09:58:17;;;;;;;7.68;6.03;;;23.80;99.90;;;;;;7389181;19;20150;-77
2022/06/04 10:01:04;;;;;;;6.70;6.00;;;23.70;99.90;;;;;;7387366;19;20134;-80
2022/06/04 10:03:36;;;;;;;7.47;6.50;;;23.60;99.90;;;;;;7390594;19;20650;-76
2022/06/04 10:06:09;;;;;;;7.53;6.75;;;23.50;99.90;;;;;;7386189;19;20182;-81
2022/06/04 10:11:24;;;;;;;7.57;6.85;;;23.00;99.90;;;;;;7390567;19;20147;-77
2022/06/04 10:13:55;;;;;;;9.20;7.65;;;22.90;99.90;;;;;;7392852;19;20515;-76
2022/06/04 10:16:41;;;;;;;11.45;7.22;;;22.80;99.90;;;;;;7389348;19;20147;-78
2022/06/04 10:19:17;;;;;;;9.80;7.80;;;22.70;99.90;;;;;;7390707;19;20773;-79
2022/06/04 10:21:48;;;;;;;8.27;7.47;;;22.60;99.90;;;;;;7385378;19;20610;-77
2022/06/04 10:24:21;;;;;;;8.30;7.38;;;22.70;99.90;;;;;;7389446;19;20154;-77
2022/06/04 10:27:00;;;;;;;6.53;5.72;;;22.80;99.90;;;;;;7386201;19;20134;-77
2022/06/04 10:29:33;;;;;;;6.80;5.68;;;22.80;99.90;;;;;;7386861;19;20165;-78
2022/06/04 10:32:07;;;;;;;6.80;6.10;;;22.60;99.90;;;;;;7382306;19;20142;-79
2022/06/04 10:34:45;;;;;;;7.28;5.50;;;22.60;99.90;;;;;;7387054;19;20155;-76
2022/06/04 10:37:26;;;;;;;5.88;5.30;;;22.50;99.90;;;;;;7386615;19;20138;-79
2022/06/04 10:40:02;;;;;;;6.25;5.65;;;22.60;99.90;;;;;;7385531;19;20142;-76
2022/06/04 10:43:10;;;;;;;5.97;5.43;;;22.70;99.90;;;;;;7388439;19;20168;-77
2022/06/04 10:45:36;;;;;;;5.28;4.80;;;22.80;99.90;;;;;;7383331;19;20183;-75
2022/06/04 10:48:16;;;;;;;5.72;4.28;;;22.70;99.90;;;;;;7387816;19;20151;-77
2022/06/04 10:54:01;;;;;;;5.93;5.43;;;22.80;99.90;;;;;;7386512;19;20146;-76
2022/06/04 10:56:58;;;;;;;6.50;5.85;;;22.70;99.90;;;;;;7387496;19;20163;-82
2022/06/04 10:59:37;;;;;;;7.80;6.68;;;22.50;99.90;;;;;;7390669;19;20492;-76
2022/06/04 11:02:20;;;;;;;7.70;6.88;;;22.40;99.90;;;;;;7390805;19;20167;-80
2022/06/04 11:04:59;;;;;;;9.80;7.78;;;22.40;99.90;;;;;;7395023;19;20163;-83
2022/06/04 11:07:34;;;;;;;8.43;7.50;;;22.30;99.90;;;;;;7397447;19;20170;-81
2022/06/04 11:10:03;;;;;;;8.80;7.95;;;22.10;99.90;;;;;;7393800;19;20130;-82
2022/06/04 11:12:44;;;;;;;8.18;7.10;;;22.10;99.90;;;;;;7393711;19;20135;-81
2022/06/04 11:15:20;;;;;;;8.43;7.53;;;22.10;99.90;;;;;;7388810;19;20144;-80
2022/06/04 11:18:24;;;;;;;8.60;7.70;;;22.10;99.90;;;;;;7390734;19;20173;-81
2022/06/04 11:21:15;;;;;;;9.95;8.18;;;22.20;99.90;;;;;;7388319;19;20163;-82
2022/06/04 11:24:11;;;;;;;10.13;9.10;;;22.10;99.90;;;;;;7393017;19;20146;-82
2022/06/04 11:26:43;;;;;;;9.40;8.48;;;22.10;99.90;;;;;;7399058;19;20213;-84
2022/06/04 11:29:11;;;;;;;12.20;10.38;;;22.10;99.90;;;;;;7396086;19;20131;-81
2022/06/04 11:32:04;;;;;;;13.23;11.73;;;22.10;99.90;;;;;;7396626;19;20130;-81
2022/06/04 11:34:39;;;;;;;11.05;9.90;;;22.00;99.90;;;;;;7395518;19;20597;-81
2022/06/04 11:37:52;;;;;;;10.77;9.77;;;22.10;99.90;;;;;;7395253;19;20218;-83
2022/06/04 11:40:24;;;;;;;11.13;10.00;;;22.00;99.90;;;;;;7394604;19;20138;-82
2022/06/04 11:42:53;;;;;;;11.95;10.85;;;22.00;99.90;;;;;;7394160;19;20138;-81
2022/06/04 11:45:55;;;;;;;11.95;10.75;;;22.10;99.90;;;;;;7393187;19;20206;-84
2022/06/04 11:48:24;;;;;;;12.23;10.95;;;22.00;99.90;;;;;;7390422;19;20201;-79
2022/06/04 11:51:30;;;;;;;13.32;11.93;;;21.90;99.90;;;;;;7393008;19;20194;-81
2022/06/04 11:54:08;;;;;;;13.68;11.70;;;22.00;99.90;;;;;;7393338;19;20138;-81
2022/06/04 11:56:48;;;;;;;13.05;11.27;;;22.00;99.90;;;;;;7388769;19;20536;-72
2022/06/04 11:59:38;;;;;;;12.35;11.15;;;22.10;99.90;;;;;;7385664;19;20143;-73
2022/06/04 12:02:12;;;;;;;15.18;12.32;;;22.20;99.90;;;;;;7385792;19;20157;-75
2022/06/04 12:05:01;;;;;;;12.02;10.82;;;22.30;99.90;;;;;;7379961;19;20190;-72
2022/06/04 12:07:41;;;;;;;12.00;10.77;;;22.50;99.90;;;;;;7386871;19;20166;-73
2022/06/04 12:10:17;;;;;;;11.73;10.18;;;22.60;99.90;;;;;;7383543;19;20185;-78
2022/06/04 12:12:49;;;;;;;11.07;9.88;;;22.60;99.90;;;;;;7384602;19;20475;-74
2022/06/04 12:15:30;;;;;;;12.18;10.20;;;22.70;99.90;;;;;;7386444;19;20150;-73
2022/06/04 12:18:00;;;;;;;10.93;9.93;;;22.80;99.90;;;;;;7385643;19;20222;-78
2022/06/04 12:26:37;;;;;;;11.90;10.38;;;22.90;99.90;;;;;;7384150;19;20135;-74
2022/06/04 12:29:23;;;;;;;11.43;9.93;;;22.90;99.90;;;;;;7392991;19;20130;-80
2022/06/04 12:31:59;;;;;;;11.68;10.43;;;23.10;99.90;;;;;;7391949;19;20154;-78
2022/06/04 12:34:39;;;;;;;11.35;10.23;;;23.20;99.90;;;;;;7393143;19;20172;-79
2022/06/04 12:37:20;;;;;;;10.57;9.43;;;23.20;99.90;;;;;;7393351;19;20146;-74
2022/06/04 12:39:46;;;;;;;10.73;9.65;;;23.10;99.90;;;;;;7391953;19;20182;-75
2022/06/04 12:42:22;;;;;;;11.10;9.98;;;23.20;99.90;;;;;;7394968;19;20135;-75
2022/06/04 12:44:58;;;;;;;10.57;9.52;;;23.20;99.90;;;;;;7397577;19;20172;-76
2022/06/04 12:47:28;;;;;;;9.98;8.95;;;23.20;99.90;;;;;;7396093;19;20146;-80
2022/06/04 12:50:04;;;;;;;9.70;8.70;;;23.40;99.90;;;;;;7396804;19;20547;-75
2022/06/04 12:52:51;;;;;;;11.52;8.23;;;23.60;99.90;;;;;;7391868;19;20150;-80
2022/06/04 12:55:32;;;;;;;11.35;9.18;;;23.70;99.90;;;;;;7390030;19;20130;-74
2022/06/04 12:58:02;;;;;;;14.23;12.43;;;23.70;99.90;;;;;;7389877;19;20606;-74
2022/06/04 13:00:36;;;;;;;11.25;9.93;;;23.70;99.90;;;;;;7390297;19;20153;-79
2022/06/04 13:03:07;;;;;;;9.68;8.77;;;23.70;99.90;;;;;;7390183;19;20610;-76
2022/06/04 13:05:58;;;;;;;8.75;7.68;;;23.60;99.90;;;;;;7390109;19;20147;-79
2022/06/04 13:08:35;;;;;;;10.95;9.77;;;23.60;99.90;;;;;;7387851;19;20471;-81
2022/06/04 13:11:17;;;;;;;9.43;8.40;;;23.60;99.90;;;;;;7392306;19;20130;-76
2022/06/04 13:14:02;;;;;;;9.20;8.30;;;23.60;99.90;;;;;;7390415;19;20141;-79
2022/06/04 13:16:30;;;;;;;8.10;7.22;;;23.60;99.90;;;;;;7392015;19;20158;-78
2022/06/04 13:19:08;;;;;;;6.10;5.50;;;23.50;99.90;;;;;;7391217;19;20155;-76
2022/06/04 13:21:40;;;;;;;6.40;5.80;;;23.70;99.90;;;;;;7397346;19;20181;-76
2022/06/04 13:24:27;;;;;;;8.15;6.35;;;23.80;99.90;;;;;;7393028;19;20146;-79
2022/06/04 13:27:27;;;;;;;6.68;5.97;;;23.80;99.90;;;;;;7391215;19;20142;-78
2022/06/04 13:29:57;;;;;;;6.60;6.00;;;23.80;99.90;;;;;;7390122;19;20145;-76
2022/06/04 13:32:23;;;;;;;5.63;4.97;;;24.00;99.90;;;;;;7394445;19;20170;-77
2022/06/04 13:34:49;;;;;;;6.82;6.00;;;24.10;99.90;;;;;;7392960;19;20135;-76
2022/06/04 13:37:24;;;;;;;6.70;5.85;;;24.20;99.90;;;;;;7389768;19;20178;-75
2022/06/04 13:39:52;;;;;;;5.53;5.03;;;24.20;99.90;;;;;;7387211;19;20158;-75
2022/06/04 13:42:27;;;;;;;5.97;4.30;;;24.40;99.90;;;;;;7392686;19;20153;-82